createdAt,value
2016-02-26T00:00:12.529Z,0.28
2016-02-26T00:01:12.531Z,0.29
2016-02-26T00:02:12.535Z,0.32
2016-02-26T00:03:12.505Z,0.35
2016-02-26T00:04:12.524Z,0.32
2016-02-26T00:05:12.495Z,0.24
2016-02-26T00:06:12.482Z,0.21
2016-02-26T00:07:12.501Z,0.18
2016-02-26T00:08:12.503Z,0.24
2016-02-26T00:09:12.475Z,0.2
2016-02-26T00:10:12.508Z,0.28
2016-02-26T00:11:12.480Z,0.18
2016-02-26T00:12:12.467Z,0.21
2016-02-26T00:13:12.454Z,0.21
2016-02-26T00:14:12.472Z,0.21
2016-02-26T00:15:12.429Z,0.21
2016-02-26T00:16:12.478Z,0.28
2016-02-26T00:17:12.434Z,0.31
2016-02-26T00:18:12.420Z,0.26
2016-02-26T00:19:12.423Z,0.2
2016-02-26T00:20:12.426Z,0.28
2016-02-26T00:21:12.445Z,0.29
2016-02-26T00:22:12.431Z,0.26
2016-02-26T00:23:12.403Z,0.26
2016-02-26T00:24:12.390Z,0.24
2016-02-26T00:25:12.408Z,0.31
2016-02-26T00:26:12.380Z,0.33
2016-02-26T00:27:12.398Z,0.28
2016-02-26T00:28:12.402Z,0.33
2016-02-26T00:29:12.372Z,0.31
2016-02-26T00:30:12.359Z,0.29
2016-02-26T00:31:12.377Z,0.42
2016-02-26T00:32:12.365Z,0.39
2016-02-26T00:33:12.352Z,0.39
2016-02-26T00:34:12.338Z,0.38
2016-02-26T00:35:12.341Z,0.38
2016-02-26T00:36:12.344Z,0.46
2016-02-26T00:37:12.331Z,0.39
2016-02-26T00:38:12.334Z,0.44
2016-02-26T00:39:12.320Z,0.46
2016-02-26T00:40:12.323Z,0.42
2016-02-26T00:41:12.326Z,0.41
2016-02-26T00:42:12.329Z,0.42
2016-02-26T00:43:12.331Z,0.36
2016-02-26T00:44:12.303Z,0.31
2016-02-26T00:45:12.322Z,0.38
2016-02-26T00:46:12.278Z,0.28
2016-02-26T00:47:12.295Z,0.28
2016-02-26T00:48:12.267Z,0.26
2016-02-26T00:49:12.269Z,0.24
2016-02-26T00:50:11.522Z,0.35
2016-02-26T00:51:12.275Z,0.41
2016-02-26T00:52:12.262Z,0.31
2016-02-26T00:53:12.250Z,0.24
2016-02-26T00:54:12.252Z,0.32
2016-02-26T00:55:12.239Z,0.28
2016-02-26T00:56:12.272Z,0.31
2016-02-26T00:57:12.229Z,0.26
2016-02-26T00:58:12.216Z,0.29
2016-02-26T00:59:12.219Z,0.24
2016-02-26T01:00:12.238Z,0.21
2016-02-26T01:01:12.240Z,0.18
2016-02-26T01:02:12.210Z,0.23
2016-02-26T01:03:12.198Z,0.24
2016-02-26T01:04:12.202Z,0.24
2016-02-26T01:05:12.188Z,0.26
2016-02-26T01:06:12.191Z,0.24
2016-02-26T01:07:12.177Z,0.23
2016-02-26T01:08:12.165Z,0.23
2016-02-26T01:09:12.167Z,0.17
2016-02-26T01:10:12.154Z,0.17
2016-02-26T01:11:12.157Z,0.18
2016-02-26T01:12:12.164Z,0.14
2016-02-26T01:13:12.124Z,0.13
2016-02-26T01:14:12.145Z,0.18
2016-02-26T01:15:12.089Z,0.18
2016-02-26T01:16:12.110Z,0.14
2016-02-26T01:17:12.077Z,0.17
2016-02-26T01:18:12.059Z,0.17
2016-02-26T01:19:12.043Z,0.14
2016-02-26T01:20:12.041Z,0.15
2016-02-26T01:21:12.007Z,0.18
2016-02-26T01:22:12.009Z,0.24
2016-02-26T01:23:12.010Z,0.13
2016-02-26T01:24:11.996Z,0.07
2016-02-26T01:25:11.997Z,0.13
2016-02-26T01:26:11.982Z,0.18
2016-02-26T01:27:11.969Z,0.17
2016-02-26T01:28:11.971Z,0.07
2016-02-26T01:29:11.973Z,0.04
2016-02-26T01:30:11.943Z,0.13
2016-02-26T01:31:11.961Z,0.13
2016-02-26T01:32:11.947Z,0.08
2016-02-26T01:33:11.935Z,0.11
2016-02-26T01:34:11.921Z,0.03
2016-02-26T01:35:11.941Z,0.04
2016-02-26T01:36:11.927Z,-0.04
2016-02-26T01:37:11.930Z,-0.03
2016-02-26T01:38:11.963Z,-0.05
2016-02-26T01:39:11.966Z,-0.08
2016-02-26T01:40:11.891Z,-0.1
2016-02-26T01:41:11.894Z,-0.01
2016-02-26T01:42:11.896Z,-0.04
2016-02-26T01:43:11.884Z,-0.07
2016-02-26T01:44:11.871Z,-0.1
2016-02-26T01:45:11.857Z,-0.16
2016-02-26T01:46:11.860Z,-0.21
2016-02-26T01:47:11.879Z,-0.16
2016-02-26T01:48:11.866Z,-0.18
2016-02-26T01:49:11.853Z,-0.16
2016-02-26T01:50:11.856Z,-0.16
2016-02-26T01:51:11.842Z,-0.19
2016-02-26T01:52:11.829Z,-0.15
2016-02-26T01:53:11.832Z,-0.19
2016-02-26T01:54:11.820Z,-0.16
2016-02-26T01:55:11.853Z,-0.21
2016-02-26T01:56:11.856Z,-0.23
2016-02-26T01:57:11.812Z,-0.1
2016-02-26T01:58:11.815Z,-0.19
2016-02-26T01:59:11.817Z,-0.18
2016-02-26T02:00:11.789Z,-0.22
2016-02-26T02:01:11.791Z,-0.22
2016-02-26T02:02:11.763Z,-0.23
2016-02-26T02:03:11.781Z,-0.19
2016-02-26T02:04:11.768Z,-0.22
2016-02-26T02:05:11.755Z,-0.23
2016-02-26T02:06:11.758Z,-0.25
2016-02-26T02:07:11.745Z,-0.26
2016-02-26T02:08:11.747Z,-0.22
2016-02-26T02:09:11.766Z,-0.18
2016-02-26T02:10:11.737Z,-0.22
2016-02-26T02:11:11.725Z,-0.26
2016-02-26T02:12:11.727Z,-0.26
2016-02-26T02:13:11.730Z,-0.26
2016-02-26T02:14:11.701Z,-0.25
2016-02-26T02:15:11.704Z,-0.28
2016-02-26T02:16:11.691Z,-0.25
2016-02-26T02:17:11.693Z,-0.22
2016-02-26T02:18:11.696Z,-0.31
2016-02-26T02:19:11.684Z,-0.28
2016-02-26T02:20:11.670Z,-0.31
2016-02-26T02:21:11.673Z,-0.29
2016-02-26T02:22:11.676Z,-0.39
2016-02-26T02:23:11.662Z,-0.34
2016-02-26T02:24:11.681Z,-0.36
2016-02-26T02:25:11.668Z,-0.33
2016-02-26T02:26:11.671Z,-0.37
2016-02-26T02:27:11.642Z,-0.39
2016-02-26T02:28:11.630Z,-0.28
2016-02-26T02:29:11.633Z,-0.31
2016-02-26T02:30:11.620Z,-0.31
2016-02-26T02:31:11.606Z,-0.28
2016-02-26T02:32:11.594Z,-0.26
2016-02-26T02:33:11.611Z,-0.22
2016-02-26T02:34:11.600Z,-0.23
2016-02-26T02:35:11.602Z,-0.37
2016-02-26T02:36:11.605Z,-0.25
2016-02-26T02:37:11.575Z,-0.25
2016-02-26T02:38:11.578Z,-0.21
2016-02-26T02:39:11.565Z,-0.28
2016-02-26T02:40:11.568Z,-0.28
2016-02-26T02:41:11.555Z,-0.23
2016-02-26T02:42:11.543Z,-0.18
2016-02-26T02:43:11.546Z,-0.19
2016-02-26T02:44:11.532Z,-0.18
2016-02-26T02:45:11.534Z,-0.15
2016-02-26T02:46:11.537Z,-0.16
2016-02-26T02:47:11.525Z,-0.19
2016-02-26T02:48:11.512Z,-0.18
2016-02-26T02:49:11.515Z,-0.16
2016-02-26T02:50:11.501Z,-0.11
2016-02-26T02:51:11.488Z,-0.04
2016-02-26T02:52:11.490Z,0
2016-02-26T02:53:11.478Z,0.02
2016-02-26T02:54:11.481Z,-0.01
2016-02-26T02:55:11.484Z,-0.01
2016-02-26T02:56:11.487Z,0.02
2016-02-26T02:57:11.473Z,0.07
2016-02-26T02:58:11.460Z,0.1
2016-02-26T02:59:11.447Z,0.11
2016-02-26T03:00:11.467Z,0.04
2016-02-26T03:01:11.437Z,0.04
2016-02-26T03:02:11.440Z,0.14
2016-02-26T03:03:11.442Z,0.14
2016-02-26T03:04:11.414Z,0.1
2016-02-26T03:05:11.422Z,0.17
2016-02-26T03:06:11.502Z,0.13
2016-02-26T03:07:11.255Z,0.21
2016-02-26T03:08:11.414Z,0.2
2016-02-26T03:09:11.417Z,0.14
2016-02-26T03:10:11.389Z,0.31
2016-02-26T03:11:11.375Z,0.18
2016-02-26T03:12:11.379Z,0.28
2016-02-26T03:13:11.397Z,0.29
2016-02-26T03:14:11.369Z,0.26
2016-02-26T03:15:11.372Z,0.28
2016-02-26T03:16:11.421Z,0.32
2016-02-26T03:17:11.346Z,0.32
2016-02-26T03:18:11.348Z,0.29
2016-02-26T03:19:11.351Z,0.33
2016-02-26T03:20:11.338Z,0.31
2016-02-26T03:21:11.341Z,0.24
2016-02-26T03:22:11.327Z,0.28
2016-02-26T03:23:11.330Z,0.29
2016-02-26T03:24:11.317Z,0.21
2016-02-26T03:25:11.321Z,0.21
2016-02-26T03:26:11.307Z,0.29
2016-02-26T03:27:11.310Z,0.28
2016-02-26T03:28:11.328Z,0.18
2016-02-26T03:29:11.284Z,0.28
2016-02-26T03:30:11.287Z,0.26
2016-02-26T03:31:11.305Z,0.2
2016-02-26T03:32:11.276Z,0.21
2016-02-26T03:33:11.264Z,0.21
2016-02-26T03:34:11.266Z,0.17
2016-02-26T03:35:11.253Z,0.2
2016-02-26T03:36:11.256Z,0.15
2016-02-26T03:37:11.258Z,0.13
2016-02-26T03:38:11.246Z,0.23
2016-02-26T03:39:11.248Z,0.17
2016-02-26T03:40:11.236Z,0.1
2016-02-26T03:41:11.222Z,0.18
2016-02-26T03:42:11.272Z,0.15
2016-02-26T03:43:11.244Z,0.14
2016-02-26T03:44:11.215Z,0.18
2016-02-26T03:45:11.202Z,0.23
2016-02-26T03:46:11.205Z,0.13
2016-02-26T03:47:11.191Z,0.14
2016-02-26T03:48:11.194Z,0.18
2016-02-26T03:49:11.182Z,0.2
2016-02-26T03:50:11.199Z,0.15
2016-02-26T03:51:11.188Z,0.14
2016-02-26T03:52:11.190Z,0.15
2016-02-26T03:53:11.160Z,0.23
2016-02-26T03:54:11.163Z,0.23
2016-02-26T03:55:10.448Z,0.29
2016-02-26T03:56:11.185Z,0.2
2016-02-26T03:57:11.141Z,0.28
2016-02-26T03:58:11.159Z,0.21
2016-02-26T03:59:11.130Z,0.23
2016-02-26T04:00:11.148Z,0.28
2016-02-26T04:01:12.260Z,0.18
2016-02-26T04:02:11.123Z,0.23
2016-02-26T04:03:11.829Z,0.26
2016-02-26T04:04:11.097Z,0.21
2016-02-26T04:05:11.100Z,0.31
2016-02-26T04:06:11.133Z,0.35
2016-02-26T04:07:11.105Z,0.29
2016-02-26T04:08:11.092Z,0.32
2016-02-26T04:09:11.078Z,0.31
2016-02-26T04:10:11.081Z,0.33
2016-02-26T04:11:11.084Z,0.26
2016-02-26T04:12:11.071Z,0.38
2016-02-26T04:13:11.121Z,0.39
2016-02-26T04:14:11.062Z,0.39
2016-02-26T04:15:11.064Z,0.33
2016-02-26T04:16:11.051Z,0.33
2016-02-26T04:17:10.913Z,0.41
2016-02-26T04:18:11.041Z,0.49
2016-02-26T04:19:11.043Z,0.46
2016-02-26T04:20:11.030Z,0.46
2016-02-26T04:21:12.393Z,0.47
2016-02-26T04:22:11.021Z,0.55
2016-02-26T04:23:11.116Z,0.46
2016-02-26T04:24:11.010Z,0.49
2016-02-26T04:25:11.012Z,0.5
2016-02-26T04:26:10.999Z,0.5
2016-02-26T04:27:11.003Z,0.47
2016-02-26T04:28:11.037Z,0.55
2016-02-26T04:29:10.993Z,0.5
2016-02-26T04:30:10.995Z,0.53
2016-02-26T04:31:10.982Z,0.55
2016-02-26T04:32:11.000Z,0.6
2016-02-26T04:33:11.035Z,0.61
2016-02-26T04:34:23.224Z,0.58
2016-02-26T04:35:10.962Z,0.58
2016-02-26T04:36:10.964Z,0.51
2016-02-26T04:37:10.951Z,0.53
2016-02-26T04:38:10.953Z,0.51
2016-02-26T04:39:10.941Z,0.69
2016-02-26T04:40:10.945Z,0.68
2016-02-26T04:41:10.947Z,0.55
2016-02-26T04:42:10.917Z,0.53
2016-02-26T04:43:10.952Z,0.61
2016-02-26T04:44:10.923Z,0.66
2016-02-26T04:45:10.926Z,0.6
2016-02-26T04:46:10.914Z,0.62
2016-02-26T04:47:10.900Z,0.6
2016-02-26T04:48:10.919Z,0.66
2016-02-26T04:49:10.889Z,0.65
2016-02-26T04:50:10.892Z,0.61
2016-02-26T04:51:10.894Z,0.66
2016-02-26T04:52:11.054Z,0.69
2016-02-26T04:53:10.886Z,0.61
2016-02-26T04:54:10.919Z,0.76
2016-02-26T04:55:12.655Z,0.73
2016-02-26T04:56:10.893Z,0.72
2016-02-26T04:57:10.864Z,0.75
2016-02-26T04:58:10.868Z,0.76
2016-02-26T04:59:10.855Z,0.76
2016-02-26T05:00:11.029Z,0.79
2016-02-26T05:01:10.876Z,0.8
2016-02-26T05:02:10.846Z,0.86
2016-02-26T05:03:10.849Z,0.86
2016-02-26T05:04:10.836Z,0.86
2016-02-26T05:05:10.829Z,0.93
2016-02-26T05:06:10.832Z,0.96
2016-02-26T05:07:10.835Z,0.93
2016-02-26T05:08:10.806Z,0.93
2016-02-26T05:09:10.809Z,0.9
2016-02-26T05:10:10.827Z,0.94
2016-02-26T05:11:10.830Z,0.94
2016-02-26T05:12:10.785Z,1.06
2016-02-26T05:13:10.788Z,1.09
2016-02-26T05:14:10.791Z,1.04
2016-02-26T05:15:10.778Z,1.08
2016-02-26T05:16:10.781Z,1.06
2016-02-26T05:17:10.783Z,1.05
2016-02-26T05:18:10.771Z,1.04
2016-02-26T05:19:10.773Z,1.14
2016-02-26T05:20:10.604Z,1.05
2016-02-26T05:21:10.763Z,1.16
2016-02-26T05:22:10.750Z,1.12
2016-02-26T05:23:10.753Z,1.08
2016-02-26T05:24:10.880Z,1.11
2016-02-26T05:25:10.758Z,1.09
2016-02-26T05:26:10.573Z,1.11
2016-02-26T05:27:10.733Z,1.22
2016-02-26T05:28:10.766Z,1.22
2016-02-26T05:29:10.738Z,1.2
2016-02-26T05:30:10.708Z,1.16
2016-02-26T05:31:10.712Z,1.14
2016-02-26T05:32:10.714Z,1.18
2016-02-26T05:33:10.701Z,1.16
2016-02-26T05:34:10.548Z,1.16
2016-02-26T05:35:10.722Z,1.2
2016-02-26T05:36:10.710Z,1.14
2016-02-26T05:37:10.682Z,1.18
2016-02-26T05:38:10.684Z,1.11
2016-02-26T05:39:10.687Z,1.12
2016-02-26T05:40:10.689Z,1.24
2016-02-26T05:41:10.676Z,1.16
2016-02-26T05:42:10.678Z,1.24
2016-02-26T05:43:10.665Z,1.24
2016-02-26T05:44:10.700Z,1.2
2016-02-26T05:45:10.656Z,1.16
2016-02-26T05:46:10.502Z,1.27
2016-02-26T05:47:10.645Z,1.22
2016-02-26T05:48:10.648Z,1.23
2016-02-26T05:49:10.651Z,1.18
2016-02-26T05:50:10.654Z,1.23
2016-02-26T05:51:10.625Z,1.22
2016-02-26T05:52:10.628Z,1.18
2016-02-26T05:53:10.631Z,1.29
2016-02-26T05:54:10.634Z,1.18
2016-02-26T05:55:10.620Z,1.2
2016-02-26T05:56:10.638Z,1.18
2016-02-26T05:57:10.454Z,1.24
2016-02-26T05:58:10.597Z,1.23
2016-02-26T05:59:10.599Z,1.22
2016-02-26T06:00:10.586Z,1.2
2016-02-26T06:01:10.589Z,1.29
2016-02-26T06:02:10.592Z,1.2
2016-02-26T06:03:10.564Z,1.34
2016-02-26T06:04:10.582Z,1.29
2016-02-26T06:05:10.600Z,1.33
2016-02-26T06:06:10.415Z,1.27
2016-02-26T06:07:10.558Z,1.33
2016-02-26T06:08:10.561Z,1.26
2016-02-26T06:09:10.564Z,1.27
2016-02-26T06:10:10.566Z,1.32
2016-02-26T06:11:10.554Z,1.32
2016-02-26T06:12:10.556Z,1.29
2016-02-26T06:13:10.543Z,1.34
2016-02-26T06:14:10.531Z,1.33
2016-02-26T06:15:10.534Z,1.34
2016-02-26T06:16:10.521Z,1.42
2016-02-26T06:17:10.523Z,1.34
2016-02-26T06:18:10.526Z,1.47
2016-02-26T06:19:10.528Z,1.41
2016-02-26T06:20:10.515Z,1.3
2016-02-26T06:21:10.502Z,1.41
2016-02-26T06:22:10.506Z,1.37
2016-02-26T06:23:10.508Z,1.42
2016-02-26T06:24:10.511Z,1.41
2016-02-26T06:25:10.497Z,1.45
2016-02-26T06:26:10.500Z,1.41
2016-02-26T06:27:10.503Z,1.44
2016-02-26T06:28:10.474Z,1.5
2016-02-26T06:29:10.493Z,1.47
2016-02-26T06:30:10.464Z,1.41
2016-02-26T06:31:10.483Z,1.47
2016-02-26T06:32:10.469Z,1.45
2016-02-26T06:33:10.472Z,1.52
2016-02-26T06:34:10.459Z,1.48
2016-02-26T06:35:10.463Z,1.58
2016-02-26T06:36:10.465Z,1.45
2016-02-26T06:37:10.452Z,1.54
2016-02-26T06:38:10.438Z,1.5
2016-02-26T06:39:10.441Z,1.58
2016-02-26T06:40:10.428Z,1.55
2016-02-26T06:41:10.432Z,1.6
2016-02-26T06:42:10.493Z,1.63
2016-02-26T06:43:10.433Z,1.65
2016-02-26T06:44:10.419Z,1.58
2016-02-26T06:45:10.422Z,1.65
2016-02-26T06:46:10.426Z,1.7
2016-02-26T06:47:10.412Z,1.81
2016-02-26T06:48:10.414Z,1.73
2016-02-26T06:49:10.433Z,1.69
2016-02-26T06:50:10.405Z,1.76
2016-02-26T06:51:10.408Z,1.76
2016-02-26T06:52:10.410Z,1.73
2016-02-26T06:53:10.397Z,1.8
2016-02-26T06:54:10.385Z,1.83
2016-02-26T06:55:10.388Z,1.81
2016-02-26T06:56:10.390Z,1.73
2016-02-26T06:57:10.376Z,1.77
2016-02-26T06:58:10.379Z,1.83
2016-02-26T06:59:10.366Z,1.81
2016-02-26T07:00:10.369Z,1.87
2016-02-26T07:01:10.357Z,1.86
2016-02-26T07:02:10.359Z,1.86
2016-02-26T07:03:10.362Z,1.84
2016-02-26T07:04:10.364Z,1.87
2016-02-26T07:05:10.367Z,1.87
2016-02-26T07:06:10.354Z,1.87
2016-02-26T07:07:10.373Z,1.9
2016-02-26T07:08:10.344Z,1.99
2016-02-26T07:09:10.331Z,1.86
2016-02-26T07:10:10.333Z,2
2016-02-26T07:11:10.336Z,1.9
2016-02-26T07:12:10.355Z,1.88
2016-02-26T07:13:10.326Z,1.93
2016-02-26T07:14:10.329Z,1.91
2016-02-26T07:15:10.316Z,1.91
2016-02-26T07:16:10.319Z,1.95
2016-02-26T07:17:10.321Z,1.91
2016-02-26T07:18:10.308Z,2
2016-02-26T07:19:10.310Z,2
2016-02-26T07:20:10.298Z,2.05
2016-02-26T07:21:10.317Z,1.98
2016-02-26T07:22:10.303Z,2.02
2016-02-26T07:23:10.291Z,1.95
2016-02-26T07:24:10.293Z,2.12
2016-02-26T07:25:10.281Z,2.14
2016-02-26T07:26:10.346Z,2.16
2016-02-26T07:27:10.302Z,2.14
2016-02-26T07:28:10.288Z,2.09
2016-02-26T07:29:10.260Z,2.06
2016-02-26T07:30:10.293Z,2.07
2016-02-26T07:31:10.265Z,2.18
2016-02-26T07:32:10.267Z,2.18
2016-02-26T07:33:10.271Z,2.14
2016-02-26T07:34:10.274Z,2.17
2016-02-26T07:35:10.260Z,2.3
2016-02-26T07:36:10.263Z,2.28
2016-02-26T07:37:10.234Z,2.27
2016-02-26T07:38:10.253Z,2.31
2016-02-26T07:39:10.240Z,2.35
2016-02-26T07:40:10.243Z,2.34
2016-02-26T07:41:10.276Z,2.36
2016-02-26T07:42:10.248Z,2.43
2016-02-26T07:43:10.250Z,2.43
2016-02-26T07:44:10.253Z,2.46
2016-02-26T07:45:10.224Z,2.43
2016-02-26T07:46:10.228Z,2.57
2016-02-26T07:47:10.231Z,2.6
2016-02-26T07:48:10.264Z,2.6
2016-02-26T07:49:10.220Z,2.66
2016-02-26T07:50:10.206Z,2.6
2016-02-26T07:51:10.288Z,2.67
2016-02-26T07:52:10.211Z,2.6
2016-02-26T07:53:11.450Z,2.64
2016-02-26T07:54:11.499Z,2.63
2016-02-26T07:55:10.377Z,2.75
2016-02-26T07:56:11.769Z,2.78
2016-02-26T07:57:11.616Z,2.79
2016-02-26T07:58:10.681Z,2.79
2016-02-26T07:59:10.372Z,2.81
2016-02-26T08:00:12.969Z,2.82
2016-02-26T08:01:11.002Z,2.84
2016-02-26T08:02:10.380Z,2.89
2016-02-26T08:03:10.304Z,2.93
2016-02-26T08:04:10.698Z,2.79
2016-02-26T08:05:11.684Z,2.79
2016-02-26T08:06:10.187Z,2.9
2016-02-26T08:07:10.190Z,2.78
2016-02-26T08:08:10.177Z,2.75
2016-02-26T08:09:10.196Z,2.78
2016-02-26T08:10:10.167Z,2.79
2016-02-26T08:11:10.185Z,2.72
2016-02-26T08:12:10.173Z,2.81
2016-02-26T08:13:10.159Z,2.77
2016-02-26T08:14:10.162Z,2.84
2016-02-26T08:15:10.165Z,2.79
2016-02-26T08:16:10.167Z,2.77
2016-02-26T08:17:10.170Z,2.81
2016-02-26T08:18:10.157Z,2.78
2016-02-26T08:19:10.159Z,2.85
2016-02-26T08:20:10.147Z,2.78
2016-02-26T08:21:09.994Z,2.93
2016-02-26T08:22:10.824Z,2.92
2016-02-26T08:23:10.702Z,2.95
2016-02-26T08:24:10.580Z,2.97
2016-02-26T08:25:10.833Z,3
2016-02-26T08:26:11.428Z,3
2016-02-26T08:27:12.150Z,3.05
2016-02-26T08:28:10.825Z,3.06
2016-02-26T08:29:11.249Z,3.1
2016-02-26T08:30:10.830Z,3.08
2016-02-26T08:31:10.442Z,3.14
2016-02-26T08:32:10.257Z,3.15
2016-02-26T08:33:11.041Z,3.2
2016-02-26T08:34:10.763Z,3.17
2016-02-26T08:35:11.093Z,3.21
2016-02-26T08:36:11.049Z,3.23
2016-02-26T08:37:10.521Z,3.2
2016-02-26T08:38:10.960Z,3.31
2016-02-26T08:39:10.745Z,3.28
2016-02-26T08:40:10.419Z,3.32
2016-02-26T08:41:10.109Z,3.33
2016-02-26T08:42:11.268Z,3.35
2016-02-26T08:43:11.178Z,3.48
2016-02-26T08:44:10.648Z,3.42
2016-02-26T08:45:11.355Z,3.52
2016-02-26T08:46:11.404Z,3.57
2016-02-26T08:47:11.970Z,3.51
2016-02-26T08:48:11.019Z,3.52
2016-02-26T08:49:10.959Z,3.57
2016-02-26T08:50:11.290Z,3.55
2016-02-26T08:51:11.355Z,3.57
2016-02-26T08:52:10.655Z,3.57
2016-02-26T08:53:12.408Z,3.62
2016-02-26T08:54:11.941Z,3.58
2016-02-26T08:55:12.085Z,3.58
2016-02-26T08:56:10.853Z,3.68
2016-02-26T08:57:11.169Z,3.65
2016-02-26T08:58:11.030Z,3.66
2016-02-26T08:59:11.908Z,3.76
2016-02-26T09:00:12.630Z,3.79
2016-02-26T09:01:10.085Z,3.83
2016-02-26T09:02:10.088Z,3.78
2016-02-26T09:03:10.075Z,3.9
2016-02-26T09:04:10.063Z,3.87
2016-02-26T09:05:09.908Z,3.91
2016-02-26T09:06:10.068Z,3.97
2016-02-26T09:07:10.086Z,4.04
2016-02-26T09:08:10.135Z,4
2016-02-26T09:09:10.044Z,4.18
2016-02-26T09:10:10.063Z,4.16
2016-02-26T09:11:10.081Z,4.15
2016-02-26T09:12:10.068Z,4.24
2016-02-26T09:13:10.071Z,4.29
2016-02-26T09:14:10.073Z,4.26
2016-02-26T09:15:10.232Z,4.34
2016-02-26T09:16:10.063Z,4.41
2016-02-26T09:17:10.051Z,4.36
2016-02-26T09:18:10.068Z,4.48
2016-02-26T09:19:10.056Z,4.45
2016-02-26T09:20:10.074Z,4.47
2016-02-26T09:21:10.061Z,4.42
2016-02-26T09:22:10.048Z,4.45
2016-02-26T09:23:10.113Z,4.47
2016-02-26T09:24:10.053Z,4.54
2016-02-26T09:26:09.824Z,4.6
2016-02-26T09:27:10.046Z,4.59
2016-02-26T09:28:10.049Z,4.69
2016-02-26T09:29:10.098Z,4.65
2016-02-26T09:30:10.069Z,4.65
2016-02-26T09:31:10.057Z,4.75
2016-02-26T09:32:10.060Z,4.7
2016-02-26T09:33:10.093Z,4.72
2016-02-26T09:34:10.049Z,4.73
2016-02-26T09:35:10.052Z,4.82
2016-02-26T09:36:10.054Z,4.72
2016-02-26T09:37:10.073Z,4.75
2016-02-26T09:38:10.793Z,4.82
2016-02-26T09:39:24.141Z,4.75
2016-02-26T09:40:10.049Z,4.8
2016-02-26T09:41:10.037Z,4.75
2016-02-26T09:42:10.165Z,4.73
2016-02-26T09:43:10.401Z,4.82
2016-02-26T09:44:10.217Z,4.82
2016-02-26T09:45:10.390Z,4.91
2016-02-26T09:46:10.129Z,4.84
2016-02-26T09:47:10.225Z,4.85
2016-02-26T09:48:10.133Z,4.91
2016-02-26T09:49:10.183Z,4.94
2016-02-26T09:50:10.123Z,4.91
2016-02-26T09:51:10.111Z,4.94
2016-02-26T09:52:10.114Z,4.96
2016-02-26T09:53:10.413Z,5
2016-02-26T09:54:10.165Z,4.99
2016-02-26T09:55:10.434Z,5.02
2016-02-26T09:56:10.343Z,5
2016-02-26T09:57:10.377Z,5
2016-02-26T09:58:10.333Z,4.96
2016-02-26T09:59:10.100Z,4.94
2016-02-26T10:00:10.306Z,5
2016-02-26T10:01:10.466Z,5.06
2016-02-26T10:02:10.202Z,4.99
2016-02-26T10:03:09.518Z,4.92
2016-02-26T10:04:10.302Z,4.96
2016-02-26T10:05:10.319Z,5.06
2016-02-26T10:06:10.276Z,5
2016-02-26T10:07:10.341Z,4.97
2016-02-26T10:08:10.265Z,4.92
2016-02-26T10:09:10.268Z,4.97
2016-02-26T10:10:10.286Z,4.94
2016-02-26T10:11:10.149Z,4.92
2016-02-26T10:12:10.057Z,4.94
2016-02-26T10:13:10.060Z,4.94
2016-02-26T10:14:09.907Z,4.85
2016-02-26T10:15:10.066Z,4.94
2016-02-26T10:16:10.068Z,5.03
2016-02-26T10:17:10.068Z,4.94
2016-02-26T10:18:10.044Z,5.06
2016-02-26T10:19:10.034Z,5.03
2016-02-26T10:20:10.059Z,5.02
2016-02-26T10:21:10.019Z,5.13
2016-02-26T10:22:10.010Z,5.06
2016-02-26T10:23:10.009Z,5.15
2016-02-26T10:24:09.991Z,5.13
2016-02-26T10:25:09.988Z,5.13
2016-02-26T10:26:10.034Z,5.18
2016-02-26T10:27:09.986Z,5.21
2016-02-26T10:28:09.987Z,5.21
2016-02-26T10:29:09.988Z,5.21
2016-02-26T10:30:09.989Z,5.2
2016-02-26T10:31:09.990Z,5.2
2016-02-26T10:32:09.976Z,5.2
2016-02-26T10:33:09.994Z,5.2
2016-02-26T10:34:09.981Z,5.03
2016-02-26T10:35:09.982Z,5.09
2016-02-26T10:36:10.001Z,5.09
2016-02-26T10:37:09.987Z,5.03
2016-02-26T10:38:10.724Z,5.03
2016-02-26T10:39:09.976Z,5
2016-02-26T10:40:09.979Z,5.06
2016-02-26T10:41:09.981Z,4.99
2016-02-26T10:42:09.984Z,5.06
2016-02-26T10:43:09.971Z,5.06
2016-02-26T10:44:09.973Z,5.17
2016-02-26T10:45:10.023Z,5.17
2016-02-26T10:46:09.995Z,5.22
2016-02-26T10:47:09.981Z,5.24
2016-02-26T10:48:09.984Z,5.35
2016-02-26T10:49:10.003Z,5.42
2016-02-26T10:50:09.989Z,5.42
2016-02-26T10:51:09.993Z,5.43
2016-02-26T10:52:09.995Z,5.58
2016-02-26T10:53:09.982Z,5.54
2016-02-26T10:54:09.984Z,5.56
2016-02-26T10:55:09.987Z,5.6
2016-02-26T10:56:10.021Z,5.56
2016-02-26T10:57:09.992Z,5.72
2016-02-26T10:58:09.995Z,5.71
2016-02-26T10:59:09.983Z,5.68
2016-02-26T11:00:10.000Z,5.74
2016-02-26T11:01:09.988Z,5.76
2016-02-26T11:02:10.006Z,5.78
2016-02-26T11:03:09.993Z,5.78
2016-02-26T11:04:09.996Z,5.79
2016-02-26T11:05:09.999Z,5.86
2016-02-26T11:06:10.001Z,5.89
2016-02-26T11:07:10.019Z,5.82
2016-02-26T11:08:10.006Z,5.83
2016-02-26T11:09:10.010Z,5.85
2016-02-26T11:10:10.013Z,5.86
2016-02-26T11:11:09.999Z,5.82
2016-02-26T11:12:10.017Z,5.86
2016-02-26T11:13:09.849Z,5.85
2016-02-26T11:14:10.023Z,5.78
2016-02-26T11:15:10.026Z,5.76
2016-02-26T11:16:09.997Z,5.81
2016-02-26T11:17:10.015Z,5.74
2016-02-26T11:18:10.018Z,5.75
2016-02-26T11:19:10.005Z,5.75
2016-02-26T11:20:10.023Z,5.78
2016-02-26T11:21:10.026Z,5.75
2016-02-26T11:22:10.028Z,5.68
2016-02-26T11:23:10.016Z,5.75
2016-02-26T11:24:10.018Z,5.71
2016-02-26T11:25:16.271Z,5.78
2016-02-26T11:26:10.024Z,5.79
2016-02-26T11:27:10.105Z,5.83
2016-02-26T11:28:10.029Z,5.82
2016-02-26T11:29:10.017Z,5.86
2016-02-26T11:30:10.035Z,5.82
2016-02-26T11:31:10.100Z,5.81
2016-02-26T11:32:10.071Z,5.9
2016-02-26T11:33:10.027Z,5.9
2016-02-26T11:34:10.108Z,5.93
2016-02-26T11:35:10.032Z,5.99
2016-02-26T11:36:10.051Z,5.96
2016-02-26T11:37:10.038Z,5.97
2016-02-26T11:38:10.041Z,5.97
2016-02-26T11:39:10.638Z,5.9
2016-02-26T11:40:10.858Z,5.79
2016-02-26T11:41:10.048Z,5.91
2016-02-26T11:42:10.052Z,5.78
2016-02-26T11:43:10.070Z,5.76
2016-02-26T11:44:10.057Z,5.75
2016-02-26T11:45:10.059Z,5.68
2016-02-26T11:46:10.046Z,5.74
2016-02-26T11:47:10.081Z,5.63
2016-02-26T11:48:10.052Z,5.65
2016-02-26T11:49:10.054Z,5.58
2016-02-26T11:50:10.134Z,5.51
2016-02-26T11:51:10.060Z,5.56
2016-02-26T11:52:10.062Z,5.54
2016-02-26T11:53:10.081Z,5.54
2016-02-26T11:54:10.100Z,5.51
2016-02-26T11:55:10.071Z,5.51
2016-02-26T11:56:10.245Z,5.53
2016-02-26T11:57:10.108Z,5.48
2016-02-26T11:58:10.063Z,5.48
2016-02-26T11:59:10.081Z,5.48
2016-02-26T12:00:10.084Z,5.48
2016-02-26T12:01:10.071Z,5.49
2016-02-26T12:02:10.074Z,5.53
2016-02-26T12:03:10.077Z,5.45
2016-02-26T12:04:10.063Z,5.46
2016-02-26T12:05:10.066Z,5.49
2016-02-26T12:06:10.085Z,5.43
2016-02-26T12:07:10.088Z,5.49
2016-02-26T12:08:10.105Z,5.4
2016-02-26T12:09:10.077Z,5.54
2016-02-26T12:10:10.079Z,5.49
2016-02-26T12:11:10.066Z,5.54
2016-02-26T12:12:10.085Z,5.49
2016-02-26T12:13:10.150Z,5.53
2016-02-26T12:14:10.090Z,5.54
2016-02-26T12:15:10.093Z,5.43
2016-02-26T12:16:10.096Z,5.45
2016-02-26T12:17:10.114Z,5.57
2016-02-26T12:18:10.085Z,5.4
2016-02-26T12:19:10.088Z,5.45
2016-02-26T12:20:10.481Z,5.4
2016-02-26T12:21:10.109Z,5.38
2016-02-26T12:22:10.096Z,5.31
2016-02-26T12:23:10.083Z,5.28
2016-02-26T12:24:10.226Z,5.2
2016-02-26T12:25:09.948Z,5.24
2016-02-26T12:26:09.639Z,5.17
2016-02-26T12:27:10.094Z,5.12
2016-02-26T12:28:10.003Z,5.21
2016-02-26T12:29:10.100Z,5.09
2016-02-26T12:30:10.164Z,5.15
2016-02-26T12:31:10.089Z,5.15
2016-02-26T12:32:10.123Z,5.17
2016-02-26T12:33:10.095Z,5.22
2016-02-26T12:34:10.113Z,5.17
2016-02-26T12:35:10.116Z,5.17
2016-02-26T12:36:10.102Z,5.2
2016-02-26T12:37:10.121Z,5.24
2016-02-26T12:38:10.108Z,5.2
2016-02-26T12:39:10.111Z,5.33
2016-02-26T12:40:10.082Z,5.33
2016-02-26T12:41:10.116Z,5.35
2016-02-26T12:42:10.775Z,5.38
2016-02-26T12:43:10.216Z,5.45
2016-02-26T12:44:10.093Z,5.45
2016-02-26T12:45:10.221Z,5.56
2016-02-26T12:46:10.114Z,5.48
2016-02-26T12:47:10.570Z,5.57
2016-02-26T12:48:10.370Z,5.58
2016-02-26T12:49:10.106Z,5.71
2016-02-26T12:50:10.109Z,5.81
2016-02-26T12:51:10.112Z,5.76
2016-02-26T12:52:10.115Z,5.83
2016-02-26T12:53:10.117Z,5.91
2016-02-26T12:54:10.104Z,5.96
2016-02-26T12:55:10.107Z,6.08
2016-02-26T12:56:10.125Z,6.06
2016-02-26T12:57:10.487Z,6.06
2016-02-26T12:58:10.865Z,6.04
2016-02-26T12:59:10.820Z,6.15
2016-02-26T13:00:10.120Z,6.09
2016-02-26T13:01:10.123Z,6.19
2016-02-26T13:02:10.438Z,6.22
2016-02-26T13:03:10.114Z,6.18
2016-02-26T13:04:10.208Z,6.19
2016-02-26T13:05:10.133Z,6.28
2016-02-26T13:06:10.136Z,6.3
2016-02-26T13:07:10.124Z,6.31
2016-02-26T13:08:10.126Z,6.37
2016-02-26T13:09:10.129Z,6.31
2016-02-26T13:10:10.132Z,6.37
2016-02-26T13:11:10.149Z,6.36
2016-02-26T13:12:10.215Z,6.34
2016-02-26T13:13:10.171Z,6.37
2016-02-26T13:14:10.142Z,6.37
2016-02-26T13:15:10.207Z,6.43
2016-02-26T13:16:10.163Z,6.37
2016-02-26T13:17:09.666Z,6.43
2016-02-26T13:18:10.606Z,6.48
2016-02-26T13:19:10.297Z,6.44
2016-02-26T13:20:10.237Z,6.38